Time;durP1;ratioP1;P1;durP2;ratioP2;P2;SDS_P1;SDS_P2;PMS_P1;PMS_P2;Temp;Humidity;BMP_temperature;BMP_pressure;BME280_temperature;BME280_humidity;BME280_pressure;Samples;Min_cycle;Max_cycle;Signal;HPM_P1;HPM_P2
2022/09/28 00:00:12;;;;;;;1.30;1.20;;;;;;;;;;5050673;28;24523;-44
2022/09/28 00:02:37;;;;;;;1.00;1.00;;;;;;;;;;5056911;28;24419;-45
2022/09/28 00:05:03;;;;;;;1.10;1.10;;;;;;;;;;5056992;28;24408;-45
2022/09/28 00:07:28;;;;;;;1.40;1.30;;;;;;;;;;5047170;28;24402;-45
2022/09/28 00:09:53;;;;;;;1.00;1.00;;;;;;;;;;5051349;28;24438;-47
2022/09/28 00:12:20;;;;;;;1.10;1.10;;;;;;;;;;5050407;28;24927;-47
2022/09/28 00:14:45;;;;;;;1.27;1.27;;;;;;;;;;5053153;28;24420;-47
2022/09/28 00:17:11;;;;;;;1.80;1.20;;;;;;;;;;5065239;28;24418;-46
2022/09/28 00:19:37;;;;;;;1.23;1.10;;;;;;;;;;5063083;28;24415;-46
2022/09/28 00:22:03;;;;;;;0.80;0.80;;;;;;;;;;5068001;28;24387;-47
2022/09/28 00:24:28;;;;;;;1.10;1.10;;;;;;;;;;5061973;28;24476;-46
2022/09/28 00:26:54;;;;;;;1.00;1.00;;;;;;;;;;5066613;28;24847;-46
2022/09/28 00:29:19;;;;;;;1.43;1.33;;;;;;;;;;5058949;28;24430;-47
2022/09/28 00:31:45;;;;;;;1.00;1.00;;;;;;;;;;5055065;28;24431;-47
2022/09/28 00:34:10;;;;;;;1.40;1.10;;;;;;;;;;5062615;28;24419;-47
2022/09/28 00:36:35;;;;;;;1.27;1.17;;;;;;;;;;5066488;28;24577;-46
2022/09/28 00:39:04;;;;;;;0.90;0.90;;;;;;;;;;5064289;28;24509;-46
2022/09/28 00:41:30;;;;;;;1.00;1.00;;;;;;;;;;5052391;28;24884;-46
2022/09/28 00:44:15;;;;;;;1.20;1.10;;;;;;;;;;5054613;28;25011;-47
2022/09/28 00:46:40;;;;;;;1.10;1.10;;;;;;;;;;5063741;28;24423;-50
2022/09/28 00:49:10;;;;;;;1.00;1.00;;;;;;;;;;5065310;28;24426;-46
2022/09/28 00:51:37;;;;;;;1.40;1.30;;;;;;;;;;5065632;28;24491;-47
2022/09/28 00:54:04;;;;;;;1.20;1.20;;;;;;;;;;5065648;28;24427;-47
2022/09/28 00:56:32;;;;;;;1.10;1.10;;;;;;;;;;5066870;28;24433;-46
2022/09/28 00:58:58;;;;;;;1.20;1.10;;;;;;;;;;5055197;28;24423;-46
2022/09/28 01:01:23;;;;;;;1.10;1.10;;;;;;;;;;5064026;28;24415;-47
2022/09/28 01:03:48;;;;;;;1.10;1.10;;;;;;;;;;5053872;28;24437;-46
2022/09/28 01:06:16;;;;;;;1.10;1.00;;;;;;;;;;5066469;28;24421;-47
2022/09/28 01:08:43;;;;;;;1.10;1.00;;;;;;;;;;5055998;28;24430;-47
2022/09/28 01:11:08;;;;;;;1.20;1.10;;;;;;;;;;5059994;28;24450;-47
2022/09/28 01:13:33;;;;;;;1.00;1.00;;;;;;;;;;5062810;28;24419;-47
2022/09/28 01:16:08;;;;;;;1.13;1.13;;;;;;;;;;5066843;28;24444;-46
2022/09/28 01:18:52;;;;;;;1.00;1.00;;;;;;;;;;5057782;28;24793;-45
2022/09/28 01:21:18;;;;;;;1.17;1.10;;;;;;;;;;5057269;28;24491;-46
2022/09/28 01:24:10;;;;;;;1.00;1.00;;;;;;;;;;5060715;28;24981;-47
2022/09/28 01:26:50;;;;;;;1.00;0.90;;;;;;;;;;5065509;28;24419;-47
2022/09/28 01:29:16;;;;;;;1.00;1.00;;;;;;;;;;5055377;28;24510;-47
2022/09/28 01:31:43;;;;;;;0.90;0.90;;;;;;;;;;5064409;28;25109;-46
2022/09/28 01:34:15;;;;;;;1.25;1.17;;;;;;;;;;5066365;28;24495;-46
2022/09/28 01:36:48;;;;;;;0.90;0.90;;;;;;;;;;5063800;28;24766;-46
2022/09/28 01:39:45;;;;;;;1.00;1.00;;;;;;;;;;5066337;28;24446;-47
2022/09/28 01:42:15;;;;;;;1.00;1.00;;;;;;;;;;5042789;28;24744;-46
2022/09/28 01:44:42;;;;;;;0.90;0.90;;;;;;;;;;5065798;28;24492;-45
2022/09/28 01:47:09;;;;;;;1.00;1.00;;;;;;;;;;5063102;28;25021;-46
2022/09/28 01:49:40;;;;;;;1.10;1.10;;;;;;;;;;5057504;28;24426;-46
2022/09/28 01:52:16;;;;;;;1.17;1.08;;;;;;;;;;5063269;28;24442;-46
2022/09/28 01:54:44;;;;;;;1.10;1.10;;;;;;;;;;5051472;28;24408;-46
2022/09/28 01:57:24;;;;;;;1.10;1.10;;;;;;;;;;5063127;28;24434;-47
2022/09/28 01:59:57;;;;;;;1.20;1.10;;;;;;;;;;5063408;28;24419;-47
2022/09/28 02:02:24;;;;;;;1.00;1.00;;;;;;;;;;5046872;28;24391;-47
2022/09/28 02:04:52;;;;;;;1.60;1.50;;;;;;;;;;5066005;28;24887;-46
2022/09/28 02:07:33;;;;;;;1.30;1.20;;;;;;;;;;5063176;28;24966;-46
2022/09/28 02:10:20;;;;;;;1.30;1.20;;;;;;;;;;5058948;28;24813;-46
2022/09/28 02:12:47;;;;;;;1.40;1.30;;;;;;;;;;5056681;28;24785;-47
2022/09/28 02:15:15;;;;;;;1.30;1.20;;;;;;;;;;5065927;28;24983;-46
2022/09/28 02:17:41;;;;;;;1.50;1.40;;;;;;;;;;5064467;28;24414;-46
2022/09/28 02:20:06;;;;;;;1.50;1.40;;;;;;;;;;5063014;28;25055;-47
2022/09/28 02:22:36;;;;;;;1.60;1.30;;;;;;;;;;5057332;28;24415;-47
2022/09/28 02:25:12;;;;;;;1.20;1.10;;;;;;;;;;5059575;28;24434;-47
2022/09/28 02:27:43;;;;;;;1.10;1.10;;;;;;;;;;5063943;28;24457;-46
2022/09/28 02:30:09;;;;;;;1.15;1.15;;;;;;;;;;5061465;28;24424;-47
2022/09/28 02:32:39;;;;;;;1.20;1.20;;;;;;;;;;5066781;28;24438;-47
2022/09/28 02:35:05;;;;;;;1.10;1.10;;;;;;;;;;5066759;28;24431;-47
2022/09/28 02:37:30;;;;;;;1.10;1.10;;;;;;;;;;5067321;28;24437;-46
2022/09/28 02:39:55;;;;;;;1.30;1.20;;;;;;;;;;5068208;28;24424;-47
2022/09/28 02:42:22;;;;;;;1.20;1.10;;;;;;;;;;5062018;28;25022;-46
2022/09/28 02:45:06;;;;;;;1.17;1.17;;;;;;;;;;5064381;28;25056;-47
2022/09/28 02:47:34;;;;;;;1.20;1.20;;;;;;;;;;5070061;28;24510;-46
2022/09/28 02:50:10;;;;;;;1.30;1.30;;;;;;;;;;5068330;28;24480;-46
2022/09/28 02:52:58;;;;;;;1.40;1.30;;;;;;;;;;5067913;28;24434;-47
2022/09/28 02:55:42;;;;;;;1.80;1.70;;;;;;;;;;5064897;28;24542;-47
2022/09/28 02:58:08;;;;;;;1.70;1.60;;;;;;;;;;5055962;28;24430;-46
2022/09/28 03:00:37;;;;;;;2.10;1.50;;;;;;;;;;5064967;28;24435;-46
2022/09/28 03:03:11;;;;;;;1.80;1.70;;;;;;;;;;5062476;28;24513;-46
2022/09/28 03:05:36;;;;;;;1.30;1.30;;;;;;;;;;5062673;28;24914;-46
2022/09/28 03:08:05;;;;;;;1.70;1.60;;;;;;;;;;5051586;28;25507;-47
2022/09/28 03:10:37;;;;;;;1.60;1.50;;;;;;;;;;5067982;28;25190;-46
2022/09/28 03:13:02;;;;;;;1.70;1.60;;;;;;;;;;5078389;28;24537;-46
2022/09/28 03:15:29;;;;;;;1.70;1.60;;;;;;;;;;5082191;28;25035;-46
2022/09/28 03:17:54;;;;;;;1.80;1.70;;;;;;;;;;5069340;28;24464;-46
2022/09/28 03:20:20;;;;;;;2.20;2.00;;;;;;;;;;5066590;28;25046;-46
2022/09/28 03:22:45;;;;;;;2.03;1.93;;;;;;;;;;5069130;28;24391;-46
2022/09/28 03:25:10;;;;;;;2.00;1.90;;;;;;;;;;5068143;28;24902;-46
2022/09/28 03:27:35;;;;;;;2.13;2.03;;;;;;;;;;5068177;28;24427;-46
2022/09/28 03:30:01;;;;;;;2.60;2.50;;;;;;;;;;5068573;28;24391;-46
2022/09/28 03:32:26;;;;;;;2.50;2.30;;;;;;;;;;5068137;28;24548;-47
2022/09/28 03:34:51;;;;;;;2.20;2.10;;;;;;;;;;5066420;28;24480;-46
2022/09/28 03:37:16;;;;;;;2.50;2.30;;;;;;;;;;5059847;28;24403;-47
2022/09/28 03:39:41;;;;;;;2.40;2.30;;;;;;;;;;5066790;28;24449;-47
2022/09/28 03:42:07;;;;;;;2.37;2.27;;;;;;;;;;5059412;28;24945;-47
2022/09/28 03:44:32;;;;;;;2.80;2.60;;;;;;;;;;5065083;28;24465;-46
2022/09/28 03:46:57;;;;;;;3.20;2.90;;;;;;;;;;5072819;28;24414;-47
2022/09/28 03:49:22;;;;;;;2.90;2.70;;;;;;;;;;5068254;28;24844;-47
2022/09/28 03:51:47;;;;;;;3.80;3.50;;;;;;;;;;5069864;28;24965;-47
2022/09/28 03:54:12;;;;;;;3.80;3.50;;;;;;;;;;5063224;28;24491;-47
2022/09/28 03:56:38;;;;;;;3.45;3.20;;;;;;;;;;5073864;28;24405;-46
2022/09/28 03:59:03;;;;;;;3.70;3.40;;;;;;;;;;5065786;28;24414;-46
2022/09/28 04:01:29;;;;;;;4.70;4.20;;;;;;;;;;5062448;28;24426;-47
2022/09/28 04:03:54;;;;;;;4.00;3.70;;;;;;;;;;5047717;28;24809;-47
2022/09/28 04:06:20;;;;;;;4.60;4.20;;;;;;;;;;5063725;28;24429;-47
2022/09/28 04:08:45;;;;;;;5.10;4.70;;;;;;;;;;5059913;28;24985;-47
2022/09/28 04:11:10;;;;;;;4.72;4.32;;;;;;;;;;5049125;28;24812;-47
2022/09/28 04:13:36;;;;;;;5.00;4.60;;;;;;;;;;5064581;28;24422;-47
2022/09/28 04:16:01;;;;;;;5.20;4.80;;;;;;;;;;5064740;28;24816;-48
2022/09/28 04:18:26;;;;;;;5.40;4.90;;;;;;;;;;5063479;28;24857;-47
2022/09/28 04:21:03;;;;;;;6.00;5.50;;;;;;;;;;5062609;28;24945;-47
2022/09/28 04:23:28;;;;;;;6.20;5.70;;;;;;;;;;5061513;28;24419;-47
2022/09/28 04:25:54;;;;;;;5.70;5.20;;;;;;;;;;5055834;28;24545;-47
2022/09/28 04:31:03;;;;;;;6.90;6.30;;;;;;;;;;5059156;28;24445;-48
2022/09/28 04:33:28;;;;;;;6.60;6.00;;;;;;;;;;5075105;28;24953;-46
2022/09/28 04:35:53;;;;;;;6.65;6.10;;;;;;;;;;5064163;28;24435;-46
2022/09/28 04:38:18;;;;;;;7.87;7.13;;;;;;;;;;5060304;28;24443;-46
2022/09/28 04:40:43;;;;;;;7.10;6.50;;;;;;;;;;5061442;28;24986;-47
2022/09/28 04:43:08;;;;;;;7.20;6.53;;;;;;;;;;5061038;28;24451;-51
2022/09/28 04:45:34;;;;;;;7.30;6.60;;;;;;;;;;5059234;28;24434;-48
2022/09/28 04:47:59;;;;;;;7.65;6.95;;;;;;;;;;5060575;28;25271;-47
2022/09/28 04:50:24;;;;;;;8.05;7.35;;;;;;;;;;5053177;28;24480;-50
2022/09/28 04:52:49;;;;;;;7.23;6.60;;;;;;;;;;5056373;28;24920;-47
2022/09/28 04:55:14;;;;;;;8.73;7.93;;;;;;;;;;5053774;28;25131;-47
2022/09/28 04:57:39;;;;;;;8.30;7.60;;;;;;;;;;5050510;28;25373;-48
2022/09/28 05:00:05;;;;;;;8.45;7.65;;;;;;;;;;5054372;28;24415;-47
2022/09/28 05:02:31;;;;;;;8.20;7.50;;;;;;;;;;5054737;28;24965;-47
2022/09/28 05:04:57;;;;;;;8.20;7.40;;;;;;;;;;5057762;28;24430;-47
2022/09/28 05:07:22;;;;;;;7.50;6.88;;;;;;;;;;5048923;28;24904;-47
2022/09/28 05:09:48;;;;;;;7.93;7.22;;;;;;;;;;5059652;28;24765;-47
2022/09/28 05:12:13;;;;;;;7.50;6.90;;;;;;;;;;5057734;28;25040;-46
2022/09/28 05:14:38;;;;;;;7.10;6.50;;;;;;;;;;5052478;28;24466;-46
2022/09/28 05:17:03;;;;;;;6.97;6.28;;;;;;;;;;5053157;28;24540;-47
2022/09/28 05:19:29;;;;;;;6.90;6.33;;;;;;;;;;5059098;28;25022;-46
2022/09/28 05:21:56;;;;;;;7.20;6.60;;;;;;;;;;5058136;28;25639;-46
2022/09/28 05:24:21;;;;;;;7.95;7.15;;;;;;;;;;5064321;28;25051;-46
2022/09/28 05:26:47;;;;;;;7.30;6.70;;;;;;;;;;5058493;28;24499;-46
2022/09/28 05:29:12;;;;;;;7.88;7.18;;;;;;;;;;5066662;28;24761;-47
2022/09/28 05:31:37;;;;;;;7.90;7.20;;;;;;;;;;5066863;28;24426;-47
2022/09/28 05:34:02;;;;;;;7.63;7.03;;;;;;;;;;5066464;28;24766;-47
2022/09/28 05:36:28;;;;;;;7.70;7.10;;;;;;;;;;5066444;28;24415;-47
2022/09/28 05:38:54;;;;;;;8.57;7.78;;;;;;;;;;5064942;28;24499;-47
2022/09/28 05:41:19;;;;;;;9.20;8.40;;;;;;;;;;5066402;28;24482;-47
2022/09/28 05:43:44;;;;;;;10.83;9.83;;;;;;;;;;5066875;28;25177;-47
2022/09/28 05:46:09;;;;;;;12.00;10.80;;;;;;;;;;5065348;28;24430;-47
2022/09/28 05:48:35;;;;;;;10.50;9.50;;;;;;;;;;5052970;28;24477;-48
2022/09/28 05:51:00;;;;;;;11.90;10.80;;;;;;;;;;5059472;28;24433;-48
2022/09/28 05:53:26;;;;;;;13.60;12.30;;;;;;;;;;5065620;28;24402;-47
2022/09/28 05:55:51;;;;;;;12.10;11.00;;;;;;;;;;5046298;28;24915;-48
2022/09/28 05:58:16;;;;;;;13.10;11.90;;;;;;;;;;5045956;28;24758;-48
2022/09/28 06:00:41;;;;;;;12.90;11.70;;;;;;;;;;5046562;28;24953;-48
2022/09/28 06:03:09;;;;;;;13.60;12.20;;;;;;;;;;5053292;28;24435;-48
2022/09/28 06:05:34;;;;;;;12.35;11.25;;;;;;;;;;5060867;28;25082;-49
2022/09/28 06:08:00;;;;;;;13.20;12.00;;;;;;;;;;5062840;28;24569;-47
2022/09/28 06:10:26;;;;;;;12.80;11.70;;;;;;;;;;5057785;28;24431;-47
2022/09/28 06:12:53;;;;;;;11.90;10.90;;;;;;;;;;5060455;28;24434;-47
2022/09/28 06:15:18;;;;;;;12.65;11.55;;;;;;;;;;5053629;28;24466;-47
2022/09/28 06:17:43;;;;;;;11.60;10.60;;;;;;;;;;5051178;28;25042;-46
2022/09/28 06:20:09;;;;;;;12.48;11.48;;;;;;;;;;5059755;28;24422;-48
2022/09/28 06:22:34;;;;;;;11.67;10.67;;;;;;;;;;5059090;28;24434;-46
2022/09/28 06:24:59;;;;;;;13.27;12.18;;;;;;;;;;5058788;28;24529;-47
2022/09/28 06:27:24;;;;;;;13.02;11.98;;;;;;;;;;5060499;28;24609;-47
2022/09/28 06:29:49;;;;;;;12.55;11.45;;;;;;;;;;5064013;28;25103;-51
2022/09/28 06:32:14;;;;;;;12.75;11.75;;;;;;;;;;5069854;28;24421;-47
2022/09/28 06:34:41;;;;;;;11.30;10.40;;;;;;;;;;5068646;28;24419;-48
2022/09/28 06:37:06;;;;;;;10.60;9.80;;;;;;;;;;5068731;28;24960;-47
2022/09/28 06:39:32;;;;;;;11.70;10.80;;;;;;;;;;5062511;28;24425;-47
2022/09/28 06:41:57;;;;;;;9.83;9.13;;;;;;;;;;5064282;28;24422;-47
2022/09/28 06:44:23;;;;;;;10.57;9.83;;;;;;;;;;5064311;28;24976;-46
2022/09/28 06:46:49;;;;;;;10.40;9.60;;;;;;;;;;5056376;28;24486;-47
2022/09/28 06:49:14;;;;;;;10.63;9.82;;;;;;;;;;5062145;28;24569;-47
2022/09/28 06:51:40;;;;;;;10.15;9.35;;;;;;;;;;5069307;28;24413;-47
2022/09/28 06:54:05;;;;;;;9.20;8.50;;;;;;;;;;5069481;28;24430;-47
2022/09/28 06:56:30;;;;;;;8.97;8.30;;;;;;;;;;5069006;28;24486;-47
2022/09/28 06:58:55;;;;;;;8.25;7.65;;;;;;;;;;5069560;28;24484;-46
2022/09/28 07:01:20;;;;;;;8.48;7.88;;;;;;;;;;5065274;28;24430;-47
2022/09/28 07:03:45;;;;;;;8.48;7.88;;;;;;;;;;5064738;28;25090;-48
2022/09/28 07:06:11;;;;;;;7.88;7.30;;;;;;;;;;5069502;28;24541;-47
2022/09/28 07:08:36;;;;;;;8.30;7.70;;;;;;;;;;5067923;28;24398;-47
2022/09/28 07:11:04;;;;;;;7.97;7.47;;;;;;;;;;5063219;28;24449;-47
2022/09/28 07:13:30;;;;;;;8.90;8.30;;;;;;;;;;5068483;28;24945;-46
2022/09/28 07:15:56;;;;;;;8.87;8.17;;;;;;;;;;5068522;28;25028;-47
2022/09/28 07:18:22;;;;;;;8.07;7.47;;;;;;;;;;5068995;28;24394;-47
2022/09/28 07:20:47;;;;;;;8.70;8.10;;;;;;;;;;5067188;28;24436;-47
2022/09/28 07:23:12;;;;;;;7.93;7.33;;;;;;;;;;5069058;28;24486;-48
2022/09/28 07:25:43;;;;;;;7.65;7.15;;;;;;;;;;5068566;28;24800;-46
2022/09/28 07:28:08;;;;;;;7.78;7.28;;;;;;;;;;5068916;28;24379;-47
2022/09/28 07:30:34;;;;;;;8.40;7.80;;;;;;;;;;5068214;28;24946;-48
2022/09/28 07:33:00;;;;;;;8.63;7.93;;;;;;;;;;5068603;28;24415;-47
2022/09/28 07:35:25;;;;;;;8.20;7.60;;;;;;;;;;5068463;28;24434;-47
2022/09/28 07:38:03;;;;;;;8.20;7.60;;;;;;;;;;5068985;28;24395;-47
2022/09/28 07:43:13;;;;;;;9.45;8.65;;;;;;;;;;5067346;28;24991;-47
2022/09/28 07:45:39;;;;;;;8.73;8.03;;;;;;;;;;5068708;28;24391;-46
2022/09/28 07:48:04;;;;;;;9.40;8.60;;;;;;;;;;5068322;28;24745;-47
2022/09/28 07:50:29;;;;;;;8.67;7.97;;;;;;;;;;5067150;28;25114;-47
2022/09/28 07:52:55;;;;;;;8.57;7.97;;;;;;;;;;5064856;28;24426;-48
2022/09/28 07:55:20;;;;;;;8.00;7.50;;;;;;;;;;5068241;28;24383;-47
2022/09/28 07:57:47;;;;;;;8.02;7.43;;;;;;;;;;5068306;28;24837;-47
2022/09/28 08:00:12;;;;;;;8.23;7.63;;;;;;;;;;5068411;28;24379;-48
2022/09/28 08:02:37;;;;;;;7.87;7.37;;;;;;;;;;5067268;28;25299;-47
2022/09/28 08:05:03;;;;;;;8.88;8.18;;;;;;;;;;5067858;28;24936;-48
2022/09/28 08:07:28;;;;;;;9.00;8.30;;;;;;;;;;5067929;28;25082;-47
2022/09/28 08:09:53;;;;;;;7.93;7.40;;;;;;;;;;5067405;28;24453;-48
2022/09/28 08:12:19;;;;;;;8.03;7.53;;;;;;;;;;5067800;28;24818;-48
2022/09/28 08:14:45;;;;;;;8.43;7.82;;;;;;;;;;5068052;28;24481;-47
2022/09/28 08:17:10;;;;;;;7.53;7.03;;;;;;;;;;5066948;28;24522;-48
2022/09/28 08:22:19;;;;;;;8.15;7.55;;;;;;;;;;5067656;28;24456;-47
2022/09/28 08:24:45;;;;;;;8.00;7.50;;;;;;;;;;5067964;28;24445;-47
2022/09/28 08:27:10;;;;;;;7.10;6.70;;;;;;;;;;5062576;28;25006;-47
2022/09/28 08:29:36;;;;;;;7.00;6.50;;;;;;;;;;5062645;28;24379;-47
2022/09/28 08:32:01;;;;;;;6.50;6.10;;;;;;;;;;5067429;28;25057;-47
2022/09/28 08:34:27;;;;;;;6.90;6.40;;;;;;;;;;5065848;28;25076;-47
2022/09/28 08:36:52;;;;;;;6.63;6.13;;;;;;;;;;5067504;28;24510;-48
2022/09/28 08:39:17;;;;;;;5.83;5.43;;;;;;;;;;5065984;28;24977;-48
2022/09/28 08:41:51;;;;;;;4.40;4.10;;;;;;;;;;5067581;28;24468;-47
2022/09/28 08:44:22;;;;;;;3.90;3.60;;;;;;;;;;5067269;28;24385;-47
2022/09/28 08:46:49;;;;;;;3.53;3.33;;;;;;;;;;5064586;28;24758;-48
2022/09/28 08:49:35;;;;;;;3.10;3.00;;;;;;;;;;5066530;28;24423;-48
2022/09/28 08:52:03;;;;;;;3.15;2.95;;;;;;;;;;5066514;28;24530;-49
2022/09/28 08:54:47;;;;;;;3.60;3.40;;;;;;;;;;5066818;28;24444;-47
2022/09/28 08:57:14;;;;;;;3.97;3.78;;;;;;;;;;5066626;28;24405;-47
2022/09/28 08:59:48;;;;;;;4.40;4.00;;;;;;;;;;5065005;28;24450;-48
2022/09/28 09:02:25;;;;;;;3.83;3.63;;;;;;;;;;5066970;28;24387;-47
2022/09/28 09:04:51;;;;;;;4.30;4.00;;;;;;;;;;5067230;28;24394;-47
2022/09/28 09:07:23;;;;;;;3.80;3.60;;;;;;;;;;5066798;28;24386;-47
2022/09/28 09:10:03;;;;;;;3.35;3.15;;;;;;;;;;5059396;28;24440;-48
2022/09/28 09:12:35;;;;;;;2.20;2.10;;;;;;;;;;5063875;28;24435;-47
2022/09/28 09:15:01;;;;;;;2.55;2.35;;;;;;;;;;5065999;28;24478;-46
2022/09/28 09:17:35;;;;;;;2.50;2.30;;;;;;;;;;5066456;28;24529;-46
2022/09/28 09:20:23;;;;;;;2.20;2.10;;;;;;;;;;5064432;28;24596;-47
2022/09/28 09:22:56;;;;;;;2.10;1.90;;;;;;;;;;5065822;28;24426;-47
2022/09/28 09:25:24;;;;;;;2.10;1.70;;;;;;;;;;5066557;28;24579;-47
2022/09/28 09:28:06;;;;;;;2.00;1.90;;;;;;;;;;5066741;28;24430;-47
2022/09/28 09:30:39;;;;;;;1.80;1.70;;;;;;;;;;5064281;28;24507;-47
2022/09/28 09:33:27;;;;;;;1.83;1.73;;;;;;;;;;5066428;28;24820;-47
2022/09/28 09:36:16;;;;;;;1.90;1.80;;;;;;;;;;5066319;28;25023;-47
2022/09/28 09:38:59;;;;;;;2.33;1.83;;;;;;;;;;5065971;28;24402;-47
2022/09/28 09:41:32;;;;;;;1.60;1.50;;;;;;;;;;5065601;28;24788;-47
2022/09/28 09:43:58;;;;;;;1.80;1.60;;;;;;;;;;5066498;28;24422;-47
2022/09/28 09:46:39;;;;;;;3.60;1.80;;;;;;;;;;5066410;28;24401;-48
2022/09/28 09:49:15;;;;;;;1.80;1.70;;;;;;;;;;5066232;28;25155;-47
2022/09/28 09:51:47;;;;;;;2.00;1.90;;;;;;;;;;5064224;28;24588;-47
2022/09/28 09:54:21;;;;;;;1.90;1.80;;;;;;;;;;5066457;28;24382;-47
2022/09/28 09:57:13;;;;;;;2.00;1.90;;;;;;;;;;5066210;28;24402;-47
2022/09/28 09:59:39;;;;;;;2.50;2.40;;;;;;;;;;5063050;28;25120;-48
2022/09/28 10:02:22;;;;;;;2.45;2.25;;;;;;;;;;5064267;28;24597;-46
2022/09/28 10:04:49;;;;;;;3.33;3.10;;;;;;;;;;5066341;28;24494;-47
2022/09/28 10:07:19;;;;;;;3.30;3.00;;;;;;;;;;5066084;28;24984;-46
2022/09/28 10:09:46;;;;;;;3.70;3.40;;;;;;;;;;5065957;28;24434;-46
2022/09/28 10:12:14;;;;;;;3.95;3.75;;;;;;;;;;5065189;28;24446;-47
2022/09/28 10:14:39;;;;;;;4.15;3.95;;;;;;;;;;5065944;28;24387;-47
2022/09/28 10:17:05;;;;;;;4.32;4.03;;;;;;;;;;5066196;28;24464;-47
2022/09/28 10:19:31;;;;;;;3.50;3.30;;;;;;;;;;5065765;28;24417;-47
2022/09/28 10:21:58;;;;;;;3.90;3.60;;;;;;;;;;5066401;28;24398;-47
2022/09/28 10:24:30;;;;;;;4.50;4.20;;;;;;;;;;5065081;28;24514;-48
2022/09/28 10:26:57;;;;;;;3.97;3.67;;;;;;;;;;5065948;28;24402;-47
2022/09/28 10:29:24;;;;;;;4.18;3.88;;;;;;;;;;5065943;28;24463;-47
2022/09/28 10:31:50;;;;;;;3.33;3.13;;;;;;;;;;5063564;28;24445;-46
2022/09/28 10:34:18;;;;;;;3.40;3.20;;;;;;;;;;5045778;28;24403;-47
2022/09/28 10:36:45;;;;;;;3.55;3.35;;;;;;;;;;5045915;28;24427;-47
2022/09/28 10:39:29;;;;;;;3.97;3.67;;;;;;;;;;5045784;28;24406;-47
2022/09/28 10:41:55;;;;;;;2.70;2.60;;;;;;;;;;5045919;28;24937;-47
2022/09/28 10:44:20;;;;;;;3.20;2.90;;;;;;;;;;5064718;28;24430;-47
2022/09/28 10:46:54;;;;;;;3.20;3.00;;;;;;;;;;5064434;28;24968;-48
2022/09/28 10:49:20;;;;;;;3.08;2.88;;;;;;;;;;5065893;28;24414;-47
2022/09/28 10:51:46;;;;;;;2.60;2.40;;;;;;;;;;5068855;28;24458;-47
2022/09/28 10:54:16;;;;;;;2.80;2.70;;;;;;;;;;5069742;28;25055;-47
2022/09/28 10:56:41;;;;;;;3.10;2.90;;;;;;;;;;5068336;28;24430;-47
2022/09/28 10:59:23;;;;;;;2.90;2.70;;;;;;;;;;5069276;28;24398;-46
2022/09/28 11:01:52;;;;;;;2.60;2.40;;;;;;;;;;5067931;28;24391;-48
2022/09/28 11:04:19;;;;;;;2.38;2.25;;;;;;;;;;5065646;28;24562;-48
2022/09/28 11:06:45;;;;;;;2.30;2.20;;;;;;;;;;5069005;28;24482;-48
2022/09/28 11:09:19;;;;;;;2.22;2.13;;;;;;;;;;5068473;28;24757;-48
2022/09/28 11:11:44;;;;;;;2.30;2.20;;;;;;;;;;5065280;28;24971;-47
2022/09/28 11:14:25;;;;;;;2.40;2.30;;;;;;;;;;5066964;28;24469;-48
2022/09/28 11:17:10;;;;;;;2.17;2.08;;;;;;;;;;5065976;28;24399;-48
2022/09/28 11:19:35;;;;;;;1.90;1.80;;;;;;;;;;5067323;28;24419;-48
2022/09/28 11:22:00;;;;;;;1.80;1.70;;;;;;;;;;5065251;28;24488;-48
2022/09/28 11:24:26;;;;;;;2.40;2.30;;;;;;;;;;5066555;28;24513;-48
2022/09/28 11:26:53;;;;;;;3.00;2.70;;;;;;;;;;5065240;28;24397;-47
2022/09/28 11:29:19;;;;;;;2.50;2.40;;;;;;;;;;5067517;28;24517;-48
2022/09/28 11:31:45;;;;;;;2.30;2.10;;;;;;;;;;5065161;28;24980;-48
2022/09/28 11:34:34;;;;;;;2.70;2.60;;;;;;;;;;5065061;28;24431;-48
2022/09/28 11:37:26;;;;;;;3.00;2.80;;;;;;;;;;5058458;28;24443;-48
2022/09/28 11:40:15;;;;;;;2.50;2.40;;;;;;;;;;5054877;28;24522;-47
2022/09/28 11:43:03;;;;;;;2.60;2.40;;;;;;;;;;5067769;28;24398;-46
2022/09/28 11:45:35;;;;;;;3.30;3.10;;;;;;;;;;5065301;28;24418;-48
2022/09/28 11:48:01;;;;;;;2.80;2.60;;;;;;;;;;5068148;28;24406;-47
2022/09/28 11:50:32;;;;;;;2.30;2.20;;;;;;;;;;5066652;28;24434;-47
2022/09/28 11:53:17;;;;;;;2.50;2.30;;;;;;;;;;5068340;28;24930;-47
2022/09/28 11:56:08;;;;;;;2.60;2.40;;;;;;;;;;5062121;28;24536;-48
2022/09/28 11:58:36;;;;;;;2.40;2.30;;;;;;;;;;5063566;28;24559;-48
2022/09/28 12:01:04;;;;;;;2.33;2.22;;;;;;;;;;5063908;28;24410;-47
2022/09/28 12:03:34;;;;;;;1.88;1.77;;;;;;;;;;5066053;28;24423;-47
2022/09/28 12:06:02;;;;;;;3.10;2.90;;;;;;;;;;5062267;28;24472;-47
2022/09/28 12:08:29;;;;;;;2.40;2.20;;;;;;;;;;5067371;28;24505;-48
2022/09/28 12:11:18;;;;;;;1.70;1.60;;;;;;;;;;5067651;28;24398;-48
2022/09/28 12:13:48;;;;;;;1.10;1.10;;;;;;;;;;5059451;28;24423;-47
2022/09/28 12:16:19;;;;;;;1.15;1.15;;;;;;;;;;5067602;28;24409;-48
2022/09/28 12:18:44;;;;;;;1.00;1.00;;;;;;;;;;5066615;28;24395;-47
2022/09/28 12:21:13;;;;;;;1.52;1.10;;;;;;;;;;5067963;28;24394;-47
2022/09/28 12:23:39;;;;;;;1.67;1.30;;;;;;;;;;5067276;28;24407;-47
2022/09/28 12:26:09;;;;;;;1.48;1.38;;;;;;;;;;5067760;28;24826;-47
2022/09/28 12:28:44;;;;;;;1.90;1.60;;;;;;;;;;5067383;28;24395;-48
2022/09/28 12:31:09;;;;;;;5.43;5.03;;;;;;;;;;5067035;28;24419;-48
2022/09/28 12:33:35;;;;;;;12.30;11.10;;;;;;;;;;5066425;28;24397;-48
2022/09/28 12:36:25;;;;;;;7.57;6.88;;;;;;;;;;5065749;28;24442;-47
2022/09/28 12:38:56;;;;;;;3.53;3.22;;;;;;;;;;5067469;28;24383;-47
2022/09/28 12:41:39;;;;;;;1.90;1.80;;;;;;;;;;5066653;28;24423;-47
2022/09/28 12:44:07;;;;;;;1.80;1.70;;;;;;;;;;5067669;28;24425;-47
2022/09/28 12:46:52;;;;;;;1.40;1.40;;;;;;;;;;5067157;28;24383;-48
2022/09/28 12:49:46;;;;;;;2.40;2.30;;;;;;;;;;5067318;28;24386;-47
2022/09/28 12:52:24;;;;;;;1.30;1.20;;;;;;;;;;5051634;28;24549;-47
2022/09/28 12:55:08;;;;;;;1.55;1.27;;;;;;;;;;5065337;28;24510;-47
2022/09/28 12:57:36;;;;;;;1.30;1.20;;;;;;;;;;5067020;28;24415;-48
2022/09/28 13:00:14;;;;;;;1.50;1.20;;;;;;;;;;5067398;28;24450;-47
2022/09/28 13:02:57;;;;;;;1.50;1.40;;;;;;;;;;5065988;28;24427;-47
2022/09/28 13:05:40;;;;;;;1.55;1.45;;;;;;;;;;5066814;28;24413;-48
2022/09/28 13:08:13;;;;;;;1.50;1.40;;;;;;;;;;5067541;28;25210;-49
2022/09/28 13:10:59;;;;;;;1.40;1.30;;;;;;;;;;5064744;28;24785;-47
2022/09/28 13:13:24;;;;;;;1.35;1.25;;;;;;;;;;5066401;28;24468;-48
2022/09/28 13:15:49;;;;;;;1.30;1.20;;;;;;;;;;5066842;28;24469;-47
2022/09/28 13:18:26;;;;;;;1.20;1.20;;;;;;;;;;5066882;28;24394;-47
2022/09/28 13:20:51;;;;;;;1.02;1.00;;;;;;;;;;5066151;28;24433;-45
2022/09/28 13:23:16;;;;;;;0.90;0.90;;;;;;;;;;5066986;28;24800;-47
2022/09/28 13:25:55;;;;;;;1.10;1.10;;;;;;;;;;5066742;28;24390;-46
2022/09/28 13:28:21;;;;;;;0.93;0.93;;;;;;;;;;5066605;28;24402;-48
2022/09/28 13:30:49;;;;;;;0.90;0.90;;;;;;;;;;5064511;28;24418;-48
2022/09/28 13:33:17;;;;;;;1.10;1.00;;;;;;;;;;5064446;28;24429;-47
2022/09/28 13:35:43;;;;;;;0.90;0.90;;;;;;;;;;5049403;28;25056;-48
2022/09/28 13:38:15;;;;;;;1.10;0.90;;;;;;;;;;5064388;28;24426;-47
2022/09/28 13:40:58;;;;;;;0.95;0.85;;;;;;;;;;5065195;28;24488;-47
2022/09/28 13:43:28;;;;;;;0.80;0.80;;;;;;;;;;5055837;28;24773;-48
2022/09/28 13:45:57;;;;;;;0.70;0.70;;;;;;;;;;5065883;28;25032;-47
2022/09/28 13:48:25;;;;;;;0.70;0.70;;;;;;;;;;5066848;28;24480;-47
2022/09/28 13:51:00;;;;;;;0.68;0.60;;;;;;;;;;5065630;28;24431;-47
2022/09/28 13:53:44;;;;;;;2.90;0.70;;;;;;;;;;5066305;28;24463;-48
2022/09/28 13:56:18;;;;;;;0.70;0.70;;;;;;;;;;5065045;28;25032;-47
2022/09/28 13:58:46;;;;;;;0.70;0.70;;;;;;;;;;5066846;28;24399;-46
2022/09/28 14:01:21;;;;;;;0.80;0.80;;;;;;;;;;5064720;28;24521;-46
2022/09/28 14:04:09;;;;;;;1.08;0.85;;;;;;;;;;5063329;28;24802;-47
2022/09/28 14:06:34;;;;;;;0.75;0.70;;;;;;;;;;5051537;28;24534;-48
2022/09/28 14:09:11;;;;;;;1.00;0.90;;;;;;;;;;5061631;28;25077;-47
2022/09/28 14:11:53;;;;;;;0.80;0.80;;;;;;;;;;5061558;28;24427;-47
2022/09/28 14:14:23;;;;;;;0.90;0.90;;;;;;;;;;5062585;28;25034;-47
2022/09/28 14:16:50;;;;;;;1.10;1.10;;;;;;;;;;5053862;28;25100;-46
2022/09/28 14:19:23;;;;;;;1.50;1.40;;;;;;;;;;5058333;28;24454;-46
2022/09/28 14:21:51;;;;;;;1.40;1.30;;;;;;;;;;5058580;28;24485;-47
2022/09/28 14:24:21;;;;;;;1.90;1.80;;;;;;;;;;5060857;28;24427;-47
2022/09/28 14:27:05;;;;;;;2.30;2.10;;;;;;;;;;5066054;28;24409;-47
2022/09/28 14:29:32;;;;;;;3.47;3.17;;;;;;;;;;5066171;28;24438;-47
2022/09/28 14:32:19;;;;;;;2.70;2.50;;;;;;;;;;5068259;28;24458;-47
2022/09/28 14:34:45;;;;;;;3.50;3.20;;;;;;;;;;5033835;28;24979;-48
2022/09/28 14:43:20;;;;;;;2.55;2.35;;;;;;;;;;5059123;28;24434;-47
2022/09/28 14:45:45;;;;;;;1.80;1.70;;;;;;;;;;5076555;28;24952;-52
2022/09/28 14:48:13;;;;;;;2.00;1.90;;;;;;;;;;5085070;28;24438;-47
2022/09/28 14:50:38;;;;;;;1.70;1.60;;;;;;;;;;5087756;28;24787;-47
2022/09/28 14:53:04;;;;;;;1.60;1.50;;;;;;;;;;5063696;28;25065;-48
2022/09/28 14:55:32;;;;;;;1.83;1.73;;;;;;;;;;5056973;28;25026;-47
2022/09/28 14:57:58;;;;;;;1.80;1.70;;;;;;;;;;5067079;28;24502;-47
2022/09/28 15:00:25;;;;;;;2.20;2.00;;;;;;;;;;5077115;28;24550;-47
2022/09/28 15:02:51;;;;;;;1.80;1.70;;;;;;;;;;5072012;28;24446;-45
2022/09/28 15:05:21;;;;;;;1.30;1.30;;;;;;;;;;5084234;28;24432;-46
2022/09/28 15:07:48;;;;;;;1.70;1.60;;;;;;;;;;5077077;28;24465;-47